• Join FlightAware (Why Join?)
  • Login
  • US Flag 
09:39AM EDT


 

Airport Tracker/Info


-or-


 

Live Flight TrackerFlight Track Log ✈ AAL667 ✈ 25-Jun-2013 ✈ KDFW - KABQ

Flight Track Log - Related Links

Times and Time Zones

All times are in EDT time to prevent confusion due to time zone crossing. See the AAL667 flight status page for this flight to view local times or setup timezone preferences in your user account.

Time Position Orientation Groundspeed Altitude Reporting Facility
EDT Latitude Longitude Course Direction KTS MPH feet Rate Location/Type
11:47PM 32.8833 -97.0500 293° West 186 214 1,700  Level Dallas / Fort Worth TRACON
11:48PM 32.8167 -97.0500 180° South 226 260 4,200 2,220 Climbing Dallas / Fort Worth TRACON
11:49PM 32.7500 -97.0500 180° South 246 283 6,900 2,220 Climbing Dallas / Fort Worth TRACON
11:50PM 32.7204 -97.3560 293° West  Level FlightAware Approximate
11:51PM 32.7652 -97.4792 293° West  Level FlightAware Approximate
11:51PM 32.6911 -97.1764 241° Southwest 288 331 10,400  Level Fort Worth Center
11:52PM 32.8094 -97.6028 293° West  Level FlightAware Approximate
11:52PM 32.7058 -97.2850 279° West 320 368 12,100  Level Fort Worth Center
11:53PM 32.7394 -97.3839 292° West 347 399 14,500 2,400 Climbing Fort Worth Center
11:54PM 32.7853 -97.5072 294° West 364 419 16,900 2,280 Climbing Fort Worth Center
11:55PM 32.8228 -97.6161 292° West 384 442 19,100 2,160 Climbing Fort Worth Center
11:56PM 32.8622 -97.7547 289° West 405 466 21,300 1,800 Climbing Fort Worth Center
11:57PM 32.8617 -97.8733 270° West 406 467 22,700 1,500 Climbing Fort Worth Center
11:58PM 32.8672 -98.0317 272° West 425 489 24,300 1,440 Climbing Fort Worth Center
11:59PM 32.9083 -98.1706 289° West 430 495 25,600 1,380 Climbing Fort Worth Center
12:00AM 32.9597 -98.3022 295° West 430 495 27,100 1,500 Climbing Fort Worth Center
12:01AM 33.0108 -98.4392 294° West 443 510 28,600 1,560 Climbing Fort Worth Center
12:02AM 33.0575 -98.5686 293° West 443 510 30,300 1,440 Climbing Fort Worth Center
12:03AM 33.1064 -98.7031 293° West 438 504 31,500 1,200 Climbing Fort Worth Center
12:04AM 33.1531 -98.8378 293° West 438 504 32,700 1,080 Climbing Fort Worth Center
12:05AM 33.2014 -98.9725 293° West 438 504 33,700 600 Climbing Fort Worth Center
12:06AM 33.2497 -99.1025 294° West 438 504 34,000 120 Climbing Fort Worth Center
12:07AM 33.2981 -99.2378 293° West 438 504 34,000  Level Fort Worth Center
12:08AM 33.3439 -99.3731 292° West 438 504 34,000  Level Fort Worth Center
12:09AM 33.3919 -99.5058 293° West 438 504 34,000  Level Fort Worth Center
12:10AM 33.4375 -99.6414 292° West 438 504 34,000  Level Fort Worth Center
12:11AM 33.4853 -99.7769 293° West 443 510 34,000  Level Fort Worth Center
12:12AM 33.5328 -99.9103 293° West 438 504 34,000  Level Fort Worth Center
12:13AM 33.5781 -100.0464 292° West 438 504 34,000  Level Fort Worth Center
12:14AM 33.6231 -100.1800 292° West 438 504 34,000  Level Fort Worth Center
12:15AM 33.6700 -100.3136 293° West 438 504 34,000  Level Fort Worth Center
12:16AM 33.7150 -100.4475 292° West 438 504 34,000  Level Fort Worth Center
12:17AM 33.7597 -100.5814 292° West 438 504 34,000  Level Fort Worth Center
12:18AM 33.8042 -100.7131 292° West 438 504 34,000  Level Fort Worth Center
12:19AM 33.8464 -100.8497 290° West 438 504 34,000  Level Fort Worth Center
12:20AM 33.8950 -100.9792 294° West 438 504 34,000  Level Fort Worth Center
12:21AM 33.9369 -101.1136 291° West 438 504 34,000  Level Fort Worth Center
12:22AM 33.9850 -101.2508 293° West 438 504 34,000  Level Fort Worth Center
12:23AM 34.0289 -101.3856 291° West 438 504 34,000  Level Fort Worth Center
12:24AM 34.0725 -101.5231 291° West 438 504 34,000  Level Fort Worth Center
12:25AM 34.1181 -101.6556 293° West 438 504 34,000  Level Fort Worth Center
12:26AM 34.1633 -101.7933 292° West 444 511 34,000  Level Fort Worth Center
12:27AM 34.2067 -101.9286 291° West 437 503 34,000  Level Fort Worth Center
12:28AM 34.2439 -102.0511 290° West 437 503 34,000  Level Fort Worth Center
12:29AM 34.2925 -102.1969 292° West 443 510 34,000  Level Fort Worth Center
12:30AM 34.3239 -102.3069 289° West 437 503 34,000  Level Fort Worth Center
12:31AM 34.3928 -102.5144 292° West 430 495 34,000  Level Albuquerque Center
12:32AM 34.4361 -102.6514 291° West 433 498 34,000  Level Albuquerque Center
12:33AM 34.4792 -102.7869 291° West 432 497 34,000  Level Albuquerque Center
12:34AM 34.5036 -102.9111 283° West 429 494 34,000  Level Albuquerque Center
12:35AM 34.5219 -103.0578 279° West 434 499 34,000  Level Albuquerque Center
12:36AM 34.5428 -103.2289 278° West 435 501 34,000  Level Albuquerque Center
12:37AM 34.5600 -103.3747 278° West 433 498 34,000  Level Albuquerque Center
12:38AM 34.5772 -103.5208 278° West 434 499 34,000  Level Albuquerque Center
12:39AM 34.6025 -103.6672 282° West 437 503 34,000  Level Albuquerque Center
12:40AM 34.6394 -103.8081 288° West 435 501 34,000  Level Albuquerque Center
12:41AM 34.6733 -103.9500 286° West 433 498 34,000  Level Albuquerque Center
12:42AM 34.7072 -104.0925 286° West 433 498 34,000  Level Albuquerque Center
12:43AM 34.7422 -104.2336 287° West 432 497 34,000  Level Albuquerque Center
12:44AM 34.7769 -104.3761 287° West 432 497 34,000  Level Albuquerque Center
12:45AM 34.8108 -104.5178 286° West 431 496 34,000  Level Albuquerque Center
12:46AM 34.8397 -104.6628 284° West 432 497 34,000  Level Albuquerque Center
12:47AM 34.8522 -104.8094 276° West 432 497 34,000 -420 Level Albuquerque Center
12:48AM 34.8656 -104.9572 276° West 433 498 33,200 -1,380 Descending Albuquerque Center
12:49AM 34.8794 -105.1056 277° West 435 501 31,300 -2,220 Descending Albuquerque Center
12:51AM 34.8925 -105.2517 276° West 432 497 28,700 -2,580 Descending Albuquerque Center
12:52AM 34.9056 -105.3950 276° West 425 489 26,100 -2,100 Descending Albuquerque Center
12:53AM 34.9194 -105.5339 277° West 415 478 24,500 -1,800 Descending Albuquerque Center
12:54AM 34.9308 -105.6639 276° West 392 451 22,500 -1,980 Descending Albuquerque Center
12:55AM 34.9406 -105.7900 275° West 375 432 20,500 -1,860 Descending Albuquerque Center
12:56AM 34.9481 -105.9117 274° West 360 414 18,900 -1,440 Descending Albuquerque Center
12:57AM 34.9556 -106.0239 275° West 338 389 17,700 -1,440 Descending Albuquerque Center
12:58AM 34.9556 -106.1303 270° West 306 352 16,000 -1,680 Descending Albuquerque Center
12:59AM 34.9594 -106.2281 273° West 305 351 14,200 -1,800 Descending Albuquerque Center
01:00AM 34.9586 -106.3394 270° West 296 341 12,400 -1,680 Descending Albuquerque Center
01:01AM 34.9569 -106.4383 269° West 293 337 10,900 -1,200 Descending Albuquerque Center
01:02AM 34.9558 -106.5294 269° West 254 292 10,000 -780 Descending Albuquerque Center
01:03AM 34.9222 -106.5886 235° Southwest 269 310 9,300 -960 Descending Albuquerque Center
01:04AM 34.8981 -106.6578 247° West 255 293 8,000 -1,320 Descending Albuquerque Center